sensor_id;sensor_type;location;lat;lon;timestamp;P1;durP1;ratioP1;P2;durP2;ratioP2
50968;SDS011;36982;51.474;7.228;2023-03-23T00:01:13;6.33;;;3.47;;
50968;SDS011;36982;51.474;7.228;2023-03-23T00:03:44;4.77;;;3.30;;
50968;SDS011;36982;51.474;7.228;2023-03-23T00:06:11;6.23;;;3.30;;
50968;SDS011;36982;51.474;7.228;2023-03-23T00:08:41;6.07;;;3.50;;
50968;SDS011;36982;51.474;7.228;2023-03-23T00:11:15;6.03;;;3.03;;
50968;SDS011;36982;51.474;7.228;2023-03-23T00:13:47;6.53;;;4.07;;
50968;SDS011;36982;51.474;7.228;2023-03-23T00:16:16;4.77;;;2.93;;
50968;SDS011;36982;51.474;7.228;2023-03-23T00:18:47;5.90;;;3.77;;
50968;SDS011;36982;51.474;7.228;2023-03-23T00:21:17;4.63;;;3.60;;
50968;SDS011;36982;51.474;7.228;2023-03-23T00:23:43;5.53;;;3.17;;
50968;SDS011;36982;51.474;7.228;2023-03-23T00:26:09;3.90;;;3.47;;
50968;SDS011;36982;51.474;7.228;2023-03-23T00:28:36;4.70;;;2.90;;
50968;SDS011;36982;51.474;7.228;2023-03-23T00:31:04;4.77;;;3.37;;
50968;SDS011;36982;51.474;7.228;2023-03-23T00:33:32;3.57;;;2.67;;
50968;SDS011;36982;51.474;7.228;2023-03-23T00:36:03;3.60;;;2.90;;
50968;SDS011;36982;51.474;7.228;2023-03-23T00:38:30;4.53;;;2.07;;
50968;SDS011;36982;51.474;7.228;2023-03-23T00:40:56;4.83;;;2.63;;
50968;SDS011;36982;51.474;7.228;2023-03-23T00:43:22;3.07;;;2.37;;
50968;SDS011;36982;51.474;7.228;2023-03-23T00:45:49;2.70;;;2.23;;
50968;SDS011;36982;51.474;7.228;2023-03-23T00:48:17;4.43;;;2.17;;
50968;SDS011;36982;51.474;7.228;2023-03-23T00:50:46;5.63;;;2.50;;
50968;SDS011;36982;51.474;7.228;2023-03-23T00:53:12;3.70;;;2.50;;
50968;SDS011;36982;51.474;7.228;2023-03-23T00:55:39;3.40;;;2.40;;
50968;SDS011;36982;51.474;7.228;2023-03-23T00:58:10;2.30;;;1.93;;
50968;SDS011;36982;51.474;7.228;2023-03-23T01:00:36;4.20;;;1.93;;
50968;SDS011;36982;51.474;7.228;2023-03-23T01:03:02;3.43;;;1.90;;
50968;SDS011;36982;51.474;7.228;2023-03-23T01:05:28;4.30;;;2.10;;
50968;SDS011;36982;51.474;7.228;2023-03-23T01:07:57;3.07;;;2.07;;
50968;SDS011;36982;51.474;7.228;2023-03-23T01:10:23;4.43;;;2.40;;
50968;SDS011;36982;51.474;7.228;2023-03-23T01:12:51;4.43;;;2.40;;
50968;SDS011;36982;51.474;7.228;2023-03-23T01:15:17;5.53;;;2.77;;
50968;SDS011;36982;51.474;7.228;2023-03-23T01:17:43;3.97;;;2.07;;
50968;SDS011;36982;51.474;7.228;2023-03-23T01:20:11;4.87;;;2.30;;
50968;SDS011;36982;51.474;7.228;2023-03-23T01:22:38;3.53;;;2.03;;
50968;SDS011;36982;51.474;7.228;2023-03-23T01:25:05;3.07;;;1.90;;
50968;SDS011;36982;51.474;7.228;2023-03-23T01:27:32;3.50;;;2.00;;
50968;SDS011;36982;51.474;7.228;2023-03-23T01:29:57;2.90;;;1.70;;
50968;SDS011;36982;51.474;7.228;2023-03-23T01:32:23;2.30;;;2.10;;
50968;SDS011;36982;51.474;7.228;2023-03-23T01:34:49;3.70;;;2.27;;
50968;SDS011;36982;51.474;7.228;2023-03-23T01:37:14;3.43;;;2.30;;
50968;SDS011;36982;51.474;7.228;2023-03-23T01:39:40;2.73;;;2.10;;
50968;SDS011;36982;51.474;7.228;2023-03-23T01:42:08;2.87;;;2.30;;
50968;SDS011;36982;51.474;7.228;2023-03-23T01:47:00;3.23;;;2.23;;
50968;SDS011;36982;51.474;7.228;2023-03-23T01:49:27;2.67;;;2.07;;
50968;SDS011;36982;51.474;7.228;2023-03-23T01:52:04;2.40;;;1.90;;
50968;SDS011;36982;51.474;7.228;2023-03-23T01:54:36;3.90;;;2.10;;
50968;SDS011;36982;51.474;7.228;2023-03-23T01:57:04;2.63;;;2.00;;
50968;SDS011;36982;51.474;7.228;2023-03-23T01:59:32;3.37;;;1.73;;
50968;SDS011;36982;51.474;7.228;2023-03-23T02:02:00;4.77;;;2.90;;
50968;SDS011;36982;51.474;7.228;2023-03-23T02:04:27;2.73;;;1.93;;
50968;SDS011;36982;51.474;7.228;2023-03-23T02:06:54;2.97;;;2.00;;
50968;SDS011;36982;51.474;7.228;2023-03-23T02:09:22;3.70;;;2.20;;
50968;SDS011;36982;51.474;7.228;2023-03-23T02:11:50;3.90;;;1.77;;
50968;SDS011;36982;51.474;7.228;2023-03-23T02:14:17;3.47;;;1.70;;
50968;SDS011;36982;51.474;7.228;2023-03-23T02:16:55;3.10;;;2.00;;
50968;SDS011;36982;51.474;7.228;2023-03-23T02:19:37;1.97;;;1.70;;
50968;SDS011;36982;51.474;7.228;2023-03-23T02:25:36;3.30;;;1.77;;
50968;SDS011;36982;51.474;7.228;2023-03-23T02:33:57;2.33;;;1.87;;
50968;SDS011;36982;51.474;7.228;2023-03-23T02:36:33;2.00;;;1.80;;
50968;SDS011;36982;51.474;7.228;2023-03-23T02:41:51;2.60;;;1.70;;
50968;SDS011;36982;51.474;7.228;2023-03-23T02:44:21;2.97;;;2.43;;
50968;SDS011;36982;51.474;7.228;2023-03-23T02:46:50;2.73;;;2.10;;
50968;SDS011;36982;51.474;7.228;2023-03-23T02:49:18;3.30;;;2.17;;
50968;SDS011;36982;51.474;7.228;2023-03-23T02:51:45;3.73;;;2.20;;
50968;SDS011;36982;51.474;7.228;2023-03-23T02:54:13;2.67;;;2.30;;
50968;SDS011;36982;51.474;7.228;2023-03-23T02:56:41;3.50;;;2.10;;
50968;SDS011;36982;51.474;7.228;2023-03-23T02:59:08;2.90;;;2.00;;
50968;SDS011;36982;51.474;7.228;2023-03-23T03:04:01;3.00;;;2.17;;
50968;SDS011;36982;51.474;7.228;2023-03-23T03:06:44;3.90;;;1.67;;
50968;SDS011;36982;51.474;7.228;2023-03-23T03:11:56;2.77;;;2.27;;
50968;SDS011;36982;51.474;7.228;2023-03-23T03:14:30;3.23;;;2.10;;
50968;SDS011;36982;51.474;7.228;2023-03-23T03:17:10;3.17;;;2.03;;
50968;SDS011;36982;51.474;7.228;2023-03-23T03:19:45;3.20;;;1.87;;
50968;SDS011;36982;51.474;7.228;2023-03-23T03:22:13;4.63;;;2.30;;
50968;SDS011;36982;51.474;7.228;2023-03-23T03:24:40;2.63;;;1.80;;
50968;SDS011;36982;51.474;7.228;2023-03-23T03:27:11;3.00;;;1.73;;
50968;SDS011;36982;51.474;7.228;2023-03-23T03:29:40;2.10;;;1.70;;
50968;SDS011;36982;51.474;7.228;2023-03-23T03:32:08;2.43;;;1.50;;
50968;SDS011;36982;51.474;7.228;2023-03-23T03:34:36;3.63;;;2.03;;
50968;SDS011;36982;51.474;7.228;2023-03-23T03:37:02;2.00;;;1.80;;
50968;SDS011;36982;51.474;7.228;2023-03-23T03:39:30;2.00;;;1.50;;
50968;SDS011;36982;51.474;7.228;2023-03-23T03:42:00;2.33;;;1.60;;
50968;SDS011;36982;51.474;7.228;2023-03-23T03:44:26;2.43;;;1.80;;
50968;SDS011;36982;51.474;7.228;2023-03-23T03:46:52;2.67;;;1.67;;
50968;SDS011;36982;51.474;7.228;2023-03-23T03:49:17;2.33;;;1.43;;
50968;SDS011;36982;51.474;7.228;2023-03-23T03:51:43;1.90;;;1.30;;
50968;SDS011;36982;51.474;7.228;2023-03-23T03:54:09;3.60;;;1.80;;
50968;SDS011;36982;51.474;7.228;2023-03-23T03:56:35;2.67;;;1.50;;
50968;SDS011;36982;51.474;7.228;2023-03-23T03:59:05;2.60;;;1.60;;
50968;SDS011;36982;51.474;7.228;2023-03-23T04:01:33;2.13;;;1.50;;
50968;SDS011;36982;51.474;7.228;2023-03-23T04:04:40;2.73;;;1.60;;
50968;SDS011;36982;51.474;7.228;2023-03-23T04:07:36;3.40;;;1.87;;
50968;SDS011;36982;51.474;7.228;2023-03-23T04:10:37;2.83;;;1.57;;
50968;SDS011;36982;51.474;7.228;2023-03-23T04:13:04;3.53;;;1.60;;
50968;SDS011;36982;51.474;7.228;2023-03-23T04:15:30;2.33;;;1.67;;
50968;SDS011;36982;51.474;7.228;2023-03-23T04:18:18;2.80;;;1.67;;
50968;SDS011;36982;51.474;7.228;2023-03-23T04:20:45;2.50;;;1.40;;
50968;SDS011;36982;51.474;7.228;2023-03-23T04:23:14;1.73;;;1.37;;
50968;SDS011;36982;51.474;7.228;2023-03-23T04:25:50;1.97;;;1.67;;
50968;SDS011;36982;51.474;7.228;2023-03-23T04:28:27;2.77;;;1.40;;
50968;SDS011;36982;51.474;7.228;2023-03-23T04:34:20;2.50;;;1.87;;
50968;SDS011;36982;51.474;7.228;2023-03-23T04:37:17;1.60;;;1.43;;
50968;SDS011;36982;51.474;7.228;2023-03-23T04:50:25;1.70;;;1.40;;
50968;SDS011;36982;51.474;7.228;2023-03-23T04:53:17;3.47;;;1.60;;
50968;SDS011;36982;51.474;7.228;2023-03-23T04:56:04;2.40;;;1.40;;
50968;SDS011;36982;51.474;7.228;2023-03-23T04:58:30;1.90;;;1.30;;
50968;SDS011;36982;51.474;7.228;2023-03-23T05:00:59;2.40;;;1.50;;
50968;SDS011;36982;51.474;7.228;2023-03-23T05:03:25;1.70;;;1.30;;
50968;SDS011;36982;51.474;7.228;2023-03-23T05:05:52;2.67;;;1.30;;
50968;SDS011;36982;51.474;7.228;2023-03-23T05:08:22;2.60;;;1.50;;
50968;SDS011;36982;51.474;7.228;2023-03-23T05:10:56;2.83;;;1.53;;
50968;SDS011;36982;51.474;7.228;2023-03-23T05:13:22;2.60;;;1.40;;
50968;SDS011;36982;51.474;7.228;2023-03-23T05:15:48;1.93;;;1.60;;
50968;SDS011;36982;51.474;7.228;2023-03-23T05:18:14;1.53;;;1.33;;
50968;SDS011;36982;51.474;7.228;2023-03-23T05:20:40;2.40;;;1.50;;
50968;SDS011;36982;51.474;7.228;2023-03-23T05:23:07;2.40;;;1.40;;
50968;SDS011;36982;51.474;7.228;2023-03-23T05:25:33;2.37;;;1.60;;
50968;SDS011;36982;51.474;7.228;2023-03-23T05:28:04;1.97;;;1.47;;
50968;SDS011;36982;51.474;7.228;2023-03-23T05:30:29;1.70;;;1.27;;
50968;SDS011;36982;51.474;7.228;2023-03-23T05:32:55;1.63;;;1.30;;
50968;SDS011;36982;51.474;7.228;2023-03-23T05:35:21;2.07;;;1.50;;
50968;SDS011;36982;51.474;7.228;2023-03-23T05:37:47;2.30;;;1.27;;
50968;SDS011;36982;51.474;7.228;2023-03-23T05:40:13;2.40;;;1.30;;
50968;SDS011;36982;51.474;7.228;2023-03-23T05:42:39;1.40;;;1.20;;
50968;SDS011;36982;51.474;7.228;2023-03-23T05:45:10;1.83;;;1.40;;
50968;SDS011;36982;51.474;7.228;2023-03-23T05:47:37;1.93;;;1.37;;
50968;SDS011;36982;51.474;7.228;2023-03-23T05:50:05;2.47;;;1.40;;
50968;SDS011;36982;51.474;7.228;2023-03-23T05:52:31;2.20;;;1.33;;
50968;SDS011;36982;51.474;7.228;2023-03-23T05:55:00;1.97;;;1.30;;
50968;SDS011;36982;51.474;7.228;2023-03-23T05:57:25;2.27;;;1.30;;
50968;SDS011;36982;51.474;7.228;2023-03-23T05:59:52;1.70;;;1.30;;
50968;SDS011;36982;51.474;7.228;2023-03-23T06:02:17;2.30;;;1.30;;
50968;SDS011;36982;51.474;7.228;2023-03-23T06:04:43;1.60;;;1.50;;
50968;SDS011;36982;51.474;7.228;2023-03-23T06:07:09;3.07;;;1.80;;
50968;SDS011;36982;51.474;7.228;2023-03-23T06:09:45;2.77;;;1.40;;
50968;SDS011;36982;51.474;7.228;2023-03-23T06:12:10;2.73;;;1.50;;
50968;SDS011;36982;51.474;7.228;2023-03-23T06:14:36;2.90;;;2.10;;
50968;SDS011;36982;51.474;7.228;2023-03-23T06:17:02;3.63;;;1.50;;
50968;SDS011;36982;51.474;7.228;2023-03-23T06:19:28;2.07;;;1.50;;
50968;SDS011;36982;51.474;7.228;2023-03-23T06:21:54;1.93;;;1.47;;
50968;SDS011;36982;51.474;7.228;2023-03-23T06:24:20;3.37;;;1.63;;
50968;SDS011;36982;51.474;7.228;2023-03-23T06:26:46;3.67;;;1.63;;
50968;SDS011;36982;51.474;7.228;2023-03-23T06:29:12;3.47;;;1.50;;
50968;SDS011;36982;51.474;7.228;2023-03-23T06:31:43;2.37;;;1.50;;
50968;SDS011;36982;51.474;7.228;2023-03-23T06:34:12;2.17;;;1.67;;
50968;SDS011;36982;51.474;7.228;2023-03-23T06:36:38;1.90;;;1.40;;
50968;SDS011;36982;51.474;7.228;2023-03-23T06:39:04;4.10;;;1.80;;
50968;SDS011;36982;51.474;7.228;2023-03-23T06:41:30;3.70;;;1.73;;
50968;SDS011;36982;51.474;7.228;2023-03-23T06:43:59;3.17;;;1.63;;
50968;SDS011;36982;51.474;7.228;2023-03-23T06:46:25;5.37;;;1.70;;
50968;SDS011;36982;51.474;7.228;2023-03-23T06:48:52;2.57;;;1.43;;
50968;SDS011;36982;51.474;7.228;2023-03-23T06:51:19;2.10;;;1.60;;
50968;SDS011;36982;51.474;7.228;2023-03-23T06:53:45;4.93;;;1.70;;
50968;SDS011;36982;51.474;7.228;2023-03-23T06:56:10;2.63;;;2.20;;
50968;SDS011;36982;51.474;7.228;2023-03-23T06:58:37;2.33;;;1.50;;
50968;SDS011;36982;51.474;7.228;2023-03-23T07:01:04;1.97;;;1.40;;
50968;SDS011;36982;51.474;7.228;2023-03-23T07:03:30;5.40;;;1.93;;
50968;SDS011;36982;51.474;7.228;2023-03-23T07:05:56;3.57;;;1.63;;
50968;SDS011;36982;51.474;7.228;2023-03-23T07:08:23;2.30;;;1.70;;
50968;SDS011;36982;51.474;7.228;2023-03-23T07:10:52;4.50;;;1.40;;
50968;SDS011;36982;51.474;7.228;2023-03-23T07:13:19;3.13;;;1.40;;
50968;SDS011;36982;51.474;7.228;2023-03-23T07:15:45;2.27;;;1.33;;
50968;SDS011;36982;51.474;7.228;2023-03-23T07:18:12;3.73;;;1.37;;
50968;SDS011;36982;51.474;7.228;2023-03-23T07:20:37;4.57;;;1.63;;
50968;SDS011;36982;51.474;7.228;2023-03-23T07:23:03;2.90;;;1.63;;
50968;SDS011;36982;51.474;7.228;2023-03-23T07:25:32;4.43;;;1.73;;
50968;SDS011;36982;51.474;7.228;2023-03-23T07:27:58;3.90;;;1.40;;
50968;SDS011;36982;51.474;7.228;2023-03-23T07:30:25;2.80;;;1.47;;
50968;SDS011;36982;51.474;7.228;2023-03-23T07:32:51;4.10;;;1.80;;
50968;SDS011;36982;51.474;7.228;2023-03-23T07:35:17;3.37;;;1.63;;
50968;SDS011;36982;51.474;7.228;2023-03-23T07:37:42;3.43;;;1.23;;
50968;SDS011;36982;51.474;7.228;2023-03-23T07:40:08;2.73;;;1.47;;
50968;SDS011;36982;51.474;7.228;2023-03-23T07:42:44;2.70;;;1.37;;
50968;SDS011;36982;51.474;7.228;2023-03-23T07:45:11;5.77;;;1.40;;
50968;SDS011;36982;51.474;7.228;2023-03-23T07:47:38;3.10;;;1.57;;
50968;SDS011;36982;51.474;7.228;2023-03-23T07:50:05;2.43;;;1.27;;
50968;SDS011;36982;51.474;7.228;2023-03-23T07:52:32;2.30;;;1.10;;
50968;SDS011;36982;51.474;7.228;2023-03-23T07:54:59;3.80;;;1.30;;
50968;SDS011;36982;51.474;7.228;2023-03-23T07:57:26;5.80;;;1.50;;
50968;SDS011;36982;51.474;7.228;2023-03-23T07:59:52;3.90;;;1.40;;
50968;SDS011;36982;51.474;7.228;2023-03-23T08:02:18;2.73;;;1.30;;
50968;SDS011;36982;51.474;7.228;2023-03-23T08:04:43;2.57;;;1.10;;
50968;SDS011;36982;51.474;7.228;2023-03-23T08:07:09;3.67;;;1.60;;
50968;SDS011;36982;51.474;7.228;2023-03-23T08:09:37;4.17;;;1.40;;
50968;SDS011;36982;51.474;7.228;2023-03-23T08:12:04;2.23;;;1.13;;
50968;SDS011;36982;51.474;7.228;2023-03-23T08:14:29;2.53;;;1.50;;
50968;SDS011;36982;51.474;7.228;2023-03-23T08:16:55;2.40;;;1.20;;
50968;SDS011;36982;51.474;7.228;2023-03-23T08:19:21;3.50;;;1.53;;
50968;SDS011;36982;51.474;7.228;2023-03-23T08:21:48;2.40;;;1.20;;
50968;SDS011;36982;51.474;7.228;2023-03-23T08:24:14;2.43;;;1.13;;
50968;SDS011;36982;51.474;7.228;2023-03-23T08:26:40;2.23;;;1.20;;
50968;SDS011;36982;51.474;7.228;2023-03-23T08:29:06;5.53;;;1.50;;
50968;SDS011;36982;51.474;7.228;2023-03-23T08:31:32;2.83;;;1.20;;
50968;SDS011;36982;51.474;7.228;2023-03-23T08:33:59;2.93;;;1.20;;
50968;SDS011;36982;51.474;7.228;2023-03-23T08:36:25;4.63;;;1.30;;
50968;SDS011;36982;51.474;7.228;2023-03-23T08:38:52;4.07;;;1.23;;
50968;SDS011;36982;51.474;7.228;2023-03-23T08:41:18;3.53;;;1.50;;
50968;SDS011;36982;51.474;7.228;2023-03-23T08:43:45;3.73;;;1.50;;
50968;SDS011;36982;51.474;7.228;2023-03-23T08:46:11;3.63;;;1.33;;
50968;SDS011;36982;51.474;7.228;2023-03-23T08:48:37;3.03;;;1.10;;
50968;SDS011;36982;51.474;7.228;2023-03-23T08:51:04;3.37;;;1.40;;
50968;SDS011;36982;51.474;7.228;2023-03-23T08:53:31;2.70;;;1.17;;
50968;SDS011;36982;51.474;7.228;2023-03-23T08:56:07;3.20;;;1.10;;
50968;SDS011;36982;51.474;7.228;2023-03-23T08:58:35;3.53;;;1.57;;
50968;SDS011;36982;51.474;7.228;2023-03-23T09:01:02;2.67;;;1.10;;
50968;SDS011;36982;51.474;7.228;2023-03-23T09:03:31;3.63;;;1.17;;
50968;SDS011;36982;51.474;7.228;2023-03-23T09:05:58;4.43;;;1.43;;
50968;SDS011;36982;51.474;7.228;2023-03-23T09:08:25;5.17;;;1.50;;
50968;SDS011;36982;51.474;7.228;2023-03-23T09:10:53;6.70;;;1.27;;
50968;SDS011;36982;51.474;7.228;2023-03-23T09:13:25;3.47;;;1.33;;
50968;SDS011;36982;51.474;7.228;2023-03-23T09:15:51;3.73;;;1.53;;
50968;SDS011;36982;51.474;7.228;2023-03-23T09:18:17;2.20;;;1.00;;
50968;SDS011;36982;51.474;7.228;2023-03-23T09:20:43;4.40;;;1.63;;
50968;SDS011;36982;51.474;7.228;2023-03-23T09:23:09;3.83;;;1.87;;
50968;SDS011;36982;51.474;7.228;2023-03-23T09:25:37;5.00;;;1.50;;
50968;SDS011;36982;51.474;7.228;2023-03-23T09:28:03;2.50;;;1.00;;
50968;SDS011;36982;51.474;7.228;2023-03-23T09:30:30;4.30;;;1.43;;
50968;SDS011;36982;51.474;7.228;2023-03-23T09:32:58;3.73;;;1.27;;
50968;SDS011;36982;51.474;7.228;2023-03-23T09:35:26;2.20;;;1.20;;
50968;SDS011;36982;51.474;7.228;2023-03-23T09:37:52;4.73;;;1.20;;
50968;SDS011;36982;51.474;7.228;2023-03-23T09:40:20;4.53;;;1.30;;
50968;SDS011;36982;51.474;7.228;2023-03-23T09:42:56;5.40;;;1.50;;
50968;SDS011;36982;51.474;7.228;2023-03-23T09:50:54;5.00;;;1.77;;
50968;SDS011;36982;51.474;7.228;2023-03-23T09:53:29;3.70;;;1.30;;
50968;SDS011;36982;51.474;7.228;2023-03-23T09:56:08;4.33;;;1.63;;
50968;SDS011;36982;51.474;7.228;2023-03-23T09:58:43;7.33;;;1.80;;
50968;SDS011;36982;51.474;7.228;2023-03-23T10:01:37;5.47;;;1.63;;
50968;SDS011;36982;51.474;7.228;2023-03-23T10:04:14;3.67;;;1.30;;
50968;SDS011;36982;51.474;7.228;2023-03-23T10:06:57;4.53;;;1.70;;
50968;SDS011;36982;51.474;7.228;2023-03-23T10:09:25;4.80;;;1.60;;
50968;SDS011;36982;51.474;7.228;2023-03-23T10:20:02;3.83;;;1.20;;
50968;SDS011;36982;51.474;7.228;2023-03-23T10:22:35;5.83;;;2.00;;
50968;SDS011;36982;51.474;7.228;2023-03-23T10:35:29;5.93;;;1.40;;
50968;SDS011;36982;51.474;7.228;2023-03-23T10:38:01;5.63;;;1.67;;
50968;SDS011;36982;51.474;7.228;2023-03-23T10:40:31;6.57;;;1.73;;
50968;SDS011;36982;51.474;7.228;2023-03-23T10:43:00;4.77;;;1.30;;
50968;SDS011;36982;51.474;7.228;2023-03-23T10:45:27;2.80;;;1.60;;
50968;SDS011;36982;51.474;7.228;2023-03-23T10:51:06;2.60;;;1.20;;
50968;SDS011;36982;51.474;7.228;2023-03-23T10:53:38;4.07;;;1.70;;
50968;SDS011;36982;51.474;7.228;2023-03-23T10:56:19;3.30;;;1.57;;
50968;SDS011;36982;51.474;7.228;2023-03-23T10:58:49;2.87;;;1.03;;
50968;SDS011;36982;51.474;7.228;2023-03-23T11:01:17;3.53;;;1.63;;
50968;SDS011;36982;51.474;7.228;2023-03-23T11:03:48;6.50;;;1.50;;
50968;SDS011;36982;51.474;7.228;2023-03-23T11:06:22;3.03;;;1.30;;
50968;SDS011;36982;51.474;7.228;2023-03-23T11:09:17;2.80;;;1.50;;
50968;SDS011;36982;51.474;7.228;2023-03-23T11:11:52;1.70;;;1.13;;
50968;SDS011;36982;51.474;7.228;2023-03-23T11:16:59;5.10;;;1.50;;
50968;SDS011;36982;51.474;7.228;2023-03-23T11:19:34;4.77;;;1.87;;
50968;SDS011;36982;51.474;7.228;2023-03-23T11:24:34;2.97;;;1.27;;
50968;SDS011;36982;51.474;7.228;2023-03-23T11:27:08;2.80;;;1.43;;
50968;SDS011;36982;51.474;7.228;2023-03-23T11:29:35;1.93;;;1.57;;
50968;SDS011;36982;51.474;7.228;2023-03-23T11:32:09;3.53;;;1.77;;
50968;SDS011;36982;51.474;7.228;2023-03-23T11:34:41;6.70;;;2.43;;
50968;SDS011;36982;51.474;7.228;2023-03-23T11:37:13;3.87;;;1.70;;
50968;SDS011;36982;51.474;7.228;2023-03-23T11:39:47;4.07;;;1.70;;
50968;SDS011;36982;51.474;7.228;2023-03-23T11:45:19;3.87;;;2.70;;
50968;SDS011;36982;51.474;7.228;2023-03-23T11:50:48;5.33;;;4.20;;
50968;SDS011;36982;51.474;7.228;2023-03-23T11:59:14;5.63;;;3.60;;
50968;SDS011;36982;51.474;7.228;2023-03-23T12:02:01;6.50;;;3.40;;
50968;SDS011;36982;51.474;7.228;2023-03-23T12:13:26;1.97;;;1.50;;
50968;SDS011;36982;51.474;7.228;2023-03-23T12:16:38;5.40;;;1.73;;
50968;SDS011;36982;51.474;7.228;2023-03-23T12:18:54;2.47;;;1.43;;
50968;SDS011;36982;51.474;7.228;2023-03-23T12:44:06;1.53;;;1.10;;
50968;SDS011;36982;51.474;7.228;2023-03-23T12:52:02;3.43;;;1.60;;
50968;SDS011;36982;51.474;7.228;2023-03-23T13:00:21;1.37;;;1.23;;
50968;SDS011;36982;51.474;7.228;2023-03-23T13:05:42;1.30;;;1.20;;
50968;SDS011;36982;51.474;7.228;2023-03-23T13:08:26;3.70;;;1.37;;
50968;SDS011;36982;51.474;7.228;2023-03-23T13:10:59;1.80;;;1.20;;
50968;SDS011;36982;51.474;7.228;2023-03-23T13:13:50;3.73;;;1.60;;
50968;SDS011;36982;51.474;7.228;2023-03-23T13:19:11;2.57;;;1.80;;
50968;SDS011;36982;51.474;7.228;2023-03-23T13:21:53;2.77;;;1.67;;
50968;SDS011;36982;51.474;7.228;2023-03-23T13:24:49;2.53;;;1.70;;
50968;SDS011;36982;51.474;7.228;2023-03-23T13:27:22;3.30;;;1.50;;
50968;SDS011;36982;51.474;7.228;2023-03-23T13:29:55;3.87;;;2.00;;
50968;SDS011;36982;51.474;7.228;2023-03-23T13:32:34;4.80;;;1.53;;
50968;SDS011;36982;51.474;7.228;2023-03-23T13:35:11;2.63;;;1.43;;
50968;SDS011;36982;51.474;7.228;2023-03-23T13:37:44;4.10;;;1.57;;
50968;SDS011;36982;51.474;7.228;2023-03-23T13:40:18;3.07;;;1.70;;
50968;SDS011;36982;51.474;7.228;2023-03-23T13:42:56;6.70;;;2.00;;
50968;SDS011;36982;51.474;7.228;2023-03-23T13:45:35;5.23;;;1.63;;
50968;SDS011;36982;51.474;7.228;2023-03-23T13:48:05;4.50;;;1.60;;
50968;SDS011;36982;51.474;7.228;2023-03-23T13:50:55;4.10;;;1.40;;
50968;SDS011;36982;51.474;7.228;2023-03-23T13:53:27;4.00;;;1.47;;
50968;SDS011;36982;51.474;7.228;2023-03-23T13:58:48;4.50;;;1.43;;
50968;SDS011;36982;51.474;7.228;2023-03-23T14:01:19;3.17;;;1.33;;
50968;SDS011;36982;51.474;7.228;2023-03-23T14:03:58;3.53;;;1.70;;
50968;SDS011;36982;51.474;7.228;2023-03-23T14:06:26;4.73;;;1.73;;
50968;SDS011;36982;51.474;7.228;2023-03-23T14:09:02;4.40;;;1.70;;
50968;SDS011;36982;51.474;7.228;2023-03-23T14:11:31;3.57;;;2.13;;
50968;SDS011;36982;51.474;7.228;2023-03-23T14:16:40;2.60;;;1.60;;
50968;SDS011;36982;51.474;7.228;2023-03-23T14:21:51;1.70;;;1.50;;
50968;SDS011;36982;51.474;7.228;2023-03-23T14:24:40;3.50;;;1.80;;
50968;SDS011;36982;51.474;7.228;2023-03-23T14:29:34;4.90;;;2.13;;
50968;SDS011;36982;51.474;7.228;2023-03-23T14:32:00;3.57;;;2.47;;
50968;SDS011;36982;51.474;7.228;2023-03-23T14:34:28;4.83;;;2.33;;
50968;SDS011;36982;51.474;7.228;2023-03-23T14:36:56;3.97;;;2.60;;
50968;SDS011;36982;51.474;7.228;2023-03-23T14:39:26;6.37;;;2.83;;
50968;SDS011;36982;51.474;7.228;2023-03-23T14:42:04;3.80;;;2.73;;
50968;SDS011;36982;51.474;7.228;2023-03-23T14:44:34;5.17;;;3.40;;
50968;SDS011;36982;51.474;7.228;2023-03-23T14:47:03;5.87;;;3.87;;
50968;SDS011;36982;51.474;7.228;2023-03-23T14:49:39;6.33;;;4.87;;
50968;SDS011;36982;51.474;7.228;2023-03-23T14:52:14;8.37;;;6.00;;
50968;SDS011;36982;51.474;7.228;2023-03-23T14:54:41;5.47;;;4.87;;
50968;SDS011;36982;51.474;7.228;2023-03-23T14:57:12;5.83;;;4.50;;
50968;SDS011;36982;51.474;7.228;2023-03-23T14:59:41;5.90;;;4.70;;
50968;SDS011;36982;51.474;7.228;2023-03-23T15:02:16;6.47;;;3.90;;
50968;SDS011;36982;51.474;7.228;2023-03-23T15:04:56;6.20;;;3.67;;
50968;SDS011;36982;51.474;7.228;2023-03-23T15:07:29;5.70;;;3.30;;
50968;SDS011;36982;51.474;7.228;2023-03-23T15:09:58;5.50;;;3.00;;
50968;SDS011;36982;51.474;7.228;2023-03-23T15:12:24;5.87;;;3.23;;
50968;SDS011;36982;51.474;7.228;2023-03-23T15:14:55;5.47;;;2.80;;
50968;SDS011;36982;51.474;7.228;2023-03-23T15:17:33;3.83;;;2.60;;
50968;SDS011;36982;51.474;7.228;2023-03-23T15:20:08;3.23;;;2.50;;
50968;SDS011;36982;51.474;7.228;2023-03-23T15:22:36;4.57;;;2.27;;
50968;SDS011;36982;51.474;7.228;2023-03-23T15:25:12;6.33;;;2.37;;
50968;SDS011;36982;51.474;7.228;2023-03-23T15:28:18;3.30;;;1.70;;
50968;SDS011;36982;51.474;7.228;2023-03-23T15:31:05;2.83;;;1.60;;
50968;SDS011;36982;51.474;7.228;2023-03-23T15:33:38;3.77;;;1.77;;
50968;SDS011;36982;51.474;7.228;2023-03-23T15:36:09;2.63;;;1.90;;
50968;SDS011;36982;51.474;7.228;2023-03-23T15:38:42;3.97;;;1.53;;
50968;SDS011;36982;51.474;7.228;2023-03-23T15:41:20;5.90;;;1.80;;
50968;SDS011;36982;51.474;7.228;2023-03-23T15:43:51;3.67;;;1.70;;
50968;SDS011;36982;51.474;7.228;2023-03-23T15:46:22;3.00;;;1.63;;
50968;SDS011;36982;51.474;7.228;2023-03-23T15:48:53;5.20;;;1.70;;
50968;SDS011;36982;51.474;7.228;2023-03-23T15:51:40;6.60;;;1.63;;
50968;SDS011;36982;51.474;7.228;2023-03-23T15:54:08;4.13;;;1.30;;
50968;SDS011;36982;51.474;7.228;2023-03-23T15:56:38;4.07;;;1.50;;
50968;SDS011;36982;51.474;7.228;2023-03-23T15:59:04;2.93;;;1.40;;
50968;SDS011;36982;51.474;7.228;2023-03-23T16:01:30;5.60;;;2.03;;
50968;SDS011;36982;51.474;7.228;2023-03-23T16:03:57;3.37;;;1.53;;
50968;SDS011;36982;51.474;7.228;2023-03-23T16:06:30;7.03;;;1.60;;
50968;SDS011;36982;51.474;7.228;2023-03-23T16:08:58;4.17;;;1.50;;
50968;SDS011;36982;51.474;7.228;2023-03-23T16:11:25;2.97;;;1.67;;
50968;SDS011;36982;51.474;7.228;2023-03-23T16:13:53;4.33;;;1.60;;
50968;SDS011;36982;51.474;7.228;2023-03-23T16:16:24;4.47;;;1.77;;
50968;SDS011;36982;51.474;7.228;2023-03-23T16:18:52;4.07;;;1.37;;
50968;SDS011;36982;51.474;7.228;2023-03-23T16:21:17;3.23;;;1.40;;
50968;SDS011;36982;51.474;7.228;2023-03-23T16:23:43;4.97;;;1.70;;
50968;SDS011;36982;51.474;7.228;2023-03-23T16:26:10;2.80;;;1.30;;
50968;SDS011;36982;51.474;7.228;2023-03-23T16:28:36;4.77;;;1.80;;
50968;SDS011;36982;51.474;7.228;2023-03-23T16:31:02;4.43;;;1.40;;
50968;SDS011;36982;51.474;7.228;2023-03-23T16:33:28;5.23;;;1.90;;
50968;SDS011;36982;51.474;7.228;2023-03-23T16:35:54;3.30;;;1.37;;
50968;SDS011;36982;51.474;7.228;2023-03-23T16:38:21;3.20;;;1.53;;
50968;SDS011;36982;51.474;7.228;2023-03-23T16:40:47;3.20;;;1.80;;
50968;SDS011;36982;51.474;7.228;2023-03-23T16:43:13;4.50;;;3.13;;
50968;SDS011;36982;51.474;7.228;2023-03-23T16:45:40;4.27;;;1.67;;
50968;SDS011;36982;51.474;7.228;2023-03-23T16:48:07;5.40;;;2.20;;
50968;SDS011;36982;51.474;7.228;2023-03-23T16:50:34;3.90;;;1.73;;
50968;SDS011;36982;51.474;7.228;2023-03-23T16:53:01;4.03;;;1.40;;
50968;SDS011;36982;51.474;7.228;2023-03-23T16:55:27;5.00;;;2.07;;
50968;SDS011;36982;51.474;7.228;2023-03-23T16:57:54;5.20;;;1.60;;
50968;SDS011;36982;51.474;7.228;2023-03-23T17:00:20;4.83;;;2.00;;
50968;SDS011;36982;51.474;7.228;2023-03-23T17:02:47;7.97;;;2.70;;
50968;SDS011;36982;51.474;7.228;2023-03-23T17:05:16;4.23;;;1.80;;
50968;SDS011;36982;51.474;7.228;2023-03-23T17:07:46;7.97;;;1.97;;
50968;SDS011;36982;51.474;7.228;2023-03-23T17:10:12;6.87;;;2.30;;
50968;SDS011;36982;51.474;7.228;2023-03-23T17:12:39;6.60;;;1.97;;
50968;SDS011;36982;51.474;7.228;2023-03-23T17:15:06;4.57;;;1.67;;
50968;SDS011;36982;51.474;7.228;2023-03-23T17:17:32;4.23;;;2.10;;
50968;SDS011;36982;51.474;7.228;2023-03-23T17:19:58;8.17;;;2.47;;
50968;SDS011;36982;51.474;7.228;2023-03-23T17:22:24;4.13;;;2.00;;